sensor_id;sensor_type;location;lat;lon;timestamp;temperature;humidity
12971;DHT22;6550;48.650;8.774;2023-04-06T00:02:10;3.70;85.20
12971;DHT22;6550;48.650;8.774;2023-04-06T00:04:37;3.70;85.40
12971;DHT22;6550;48.650;8.774;2023-04-06T00:07:04;3.90;85.70
12971;DHT22;6550;48.650;8.774;2023-04-06T00:09:31;3.70;85.80
12971;DHT22;6550;48.650;8.774;2023-04-06T00:12:00;3.80;85.90
12971;DHT22;6550;48.650;8.774;2023-04-06T00:14:29;3.60;85.80
12971;DHT22;6550;48.650;8.774;2023-04-06T00:16:58;3.80;86.00
12971;DHT22;6550;48.650;8.774;2023-04-06T00:19:27;3.50;86.10
12971;DHT22;6550;48.650;8.774;2023-04-06T00:21:54;3.50;86.00
12971;DHT22;6550;48.650;8.774;2023-04-06T00:24:23;3.40;86.10
12971;DHT22;6550;48.650;8.774;2023-04-06T00:26:50;3.40;86.30
12971;DHT22;6550;48.650;8.774;2023-04-06T00:29:16;3.40;86.60
12971;DHT22;6550;48.650;8.774;2023-04-06T00:31:46;3.20;85.90
12971;DHT22;6550;48.650;8.774;2023-04-06T00:36:43;3.30;86.10
12971;DHT22;6550;48.650;8.774;2023-04-06T00:39:10;5.00;87.80
12971;DHT22;6550;48.650;8.774;2023-04-06T00:44:06;3.30;86.40
12971;DHT22;6550;48.650;8.774;2023-04-06T00:46:33;3.20;86.40
12971;DHT22;6550;48.650;8.774;2023-04-06T00:49:00;3.50;87.10
12971;DHT22;6550;48.650;8.774;2023-04-06T00:51:27;3.30;87.20
12971;DHT22;6550;48.650;8.774;2023-04-06T00:53:54;3.20;87.30
12971;DHT22;6550;48.650;8.774;2023-04-06T00:56:25;3.10;87.40
12971;DHT22;6550;48.650;8.774;2023-04-06T00:58:55;3.10;87.40
12971;DHT22;6550;48.650;8.774;2023-04-06T01:01:23;3.40;87.60
12971;DHT22;6550;48.650;8.774;2023-04-06T01:03:51;3.00;87.70
12971;DHT22;6550;48.650;8.774;2023-04-06T01:06:20;3.50;87.80
12971;DHT22;6550;48.650;8.774;2023-04-06T01:08:47;3.00;87.90
12971;DHT22;6550;48.650;8.774;2023-04-06T01:11:14;3.20;88.30
12971;DHT22;6550;48.650;8.774;2023-04-06T01:13:40;2.90;88.80
12971;DHT22;6550;48.650;8.774;2023-04-06T01:16:09;2.90;88.30
12971;DHT22;6550;48.650;8.774;2023-04-06T01:18:40;2.80;88.30
12971;DHT22;6550;48.650;8.774;2023-04-06T01:21:09;3.60;88.90
12971;DHT22;6550;48.650;8.774;2023-04-06T01:23:45;2.90;88.50
12971;DHT22;6550;48.650;8.774;2023-04-06T01:26:13;2.90;88.70
12971;DHT22;6550;48.650;8.774;2023-04-06T01:28:40;2.80;88.90
12971;DHT22;6550;48.650;8.774;2023-04-06T01:31:08;3.40;89.00
12971;DHT22;6550;48.650;8.774;2023-04-06T01:33:35;2.80;88.90
12971;DHT22;6550;48.650;8.774;2023-04-06T01:36:03;3.00;89.20
12971;DHT22;6550;48.650;8.774;2023-04-06T01:38:32;2.70;89.40
12971;DHT22;6550;48.650;8.774;2023-04-06T01:41:02;2.70;89.30
12971;DHT22;6550;48.650;8.774;2023-04-06T01:43:28;2.60;89.30
12971;DHT22;6550;48.650;8.774;2023-04-06T01:45:58;2.70;89.70
12971;DHT22;6550;48.650;8.774;2023-04-06T01:48:26;2.20;89.60
12971;DHT22;6550;48.650;8.774;2023-04-06T01:50:53;2.60;90.00
12971;DHT22;6550;48.650;8.774;2023-04-06T01:53:20;2.50;89.90
12971;DHT22;6550;48.650;8.774;2023-04-06T01:55:47;3.30;90.30
12971;DHT22;6550;48.650;8.774;2023-04-06T01:58:14;2.50;90.00
12971;DHT22;6550;48.650;8.774;2023-04-06T02:00:43;2.50;90.20
12971;DHT22;6550;48.650;8.774;2023-04-06T02:03:12;2.50;90.00
12971;DHT22;6550;48.650;8.774;2023-04-06T02:05:43;2.80;90.30
12971;DHT22;6550;48.650;8.774;2023-04-06T02:08:10;2.40;90.30
12971;DHT22;6550;48.650;8.774;2023-04-06T02:10:37;2.60;90.40
12971;DHT22;6550;48.650;8.774;2023-04-06T02:13:03;2.30;90.30
12971;DHT22;6550;48.650;8.774;2023-04-06T02:15:35;2.50;90.30
12971;DHT22;6550;48.650;8.774;2023-04-06T02:18:01;2.30;90.30
12971;DHT22;6550;48.650;8.774;2023-04-06T02:20:28;3.20;90.60
12971;DHT22;6550;48.650;8.774;2023-04-06T02:22:58;2.20;90.20
12971;DHT22;6550;48.650;8.774;2023-04-06T02:25:27;2.20;90.50
12971;DHT22;6550;48.650;8.774;2023-04-06T02:27:54;2.20;90.60
12971;DHT22;6550;48.650;8.774;2023-04-06T02:30:21;2.00;90.80
12971;DHT22;6550;48.650;8.774;2023-04-06T02:32:50;2.60;90.70
12971;DHT22;6550;48.650;8.774;2023-04-06T02:35:20;2.50;90.70
12971;DHT22;6550;48.650;8.774;2023-04-06T02:37:49;2.20;90.80
12971;DHT22;6550;48.650;8.774;2023-04-06T02:40:19;2.60;90.80
12971;DHT22;6550;48.650;8.774;2023-04-06T02:42:50;2.10;90.90
12971;DHT22;6550;48.650;8.774;2023-04-06T02:45:21;2.10;90.90
12971;DHT22;6550;48.650;8.774;2023-04-06T02:47:48;2.00;90.80
12971;DHT22;6550;48.650;8.774;2023-04-06T02:50:17;2.00;91.00
12971;DHT22;6550;48.650;8.774;2023-04-06T02:52:46;2.00;90.90
12971;DHT22;6550;48.650;8.774;2023-04-06T02:55:15;1.90;91.10
12971;DHT22;6550;48.650;8.774;2023-04-06T02:57:42;2.00;91.00
12971;DHT22;6550;48.650;8.774;2023-04-06T03:00:09;1.90;91.00
12971;DHT22;6550;48.650;8.774;2023-04-06T03:02:36;2.00;92.40
12971;DHT22;6550;48.650;8.774;2023-04-06T03:05:06;1.80;91.10
12971;DHT22;6550;48.650;8.774;2023-04-06T03:07:33;1.90;91.10
12971;DHT22;6550;48.650;8.774;2023-04-06T03:10:05;1.60;91.20
12971;DHT22;6550;48.650;8.774;2023-04-06T03:15:01;1.90;91.00
12971;DHT22;6550;48.650;8.774;2023-04-06T03:17:28;1.90;91.70
12971;DHT22;6550;48.650;8.774;2023-04-06T03:19:55;1.80;92.30
12971;DHT22;6550;48.650;8.774;2023-04-06T03:22:23;1.70;91.50
12971;DHT22;6550;48.650;8.774;2023-04-06T03:24:50;1.60;91.30
12971;DHT22;6550;48.650;8.774;2023-04-06T03:27:19;1.70;91.60
12971;DHT22;6550;48.650;8.774;2023-04-06T03:29:48;3.10;91.90
12971;DHT22;6550;48.650;8.774;2023-04-06T03:32:15;2.30;91.80
12971;DHT22;6550;48.650;8.774;2023-04-06T03:34:42;1.60;91.60
12971;DHT22;6550;48.650;8.774;2023-04-06T03:37:09;1.60;91.30
12971;DHT22;6550;48.650;8.774;2023-04-06T03:39:37;1.60;91.70
12971;DHT22;6550;48.650;8.774;2023-04-06T03:42:04;1.40;92.10
12971;DHT22;6550;48.650;8.774;2023-04-06T03:44:33;1.60;93.80
12971;DHT22;6550;48.650;8.774;2023-04-06T03:47:01;1.60;92.50
12971;DHT22;6550;48.650;8.774;2023-04-06T03:49:32;1.70;92.40
12971;DHT22;6550;48.650;8.774;2023-04-06T03:52:01;2.40;94.00
12971;DHT22;6550;48.650;8.774;2023-04-06T03:54:27;1.50;91.60
12971;DHT22;6550;48.650;8.774;2023-04-06T03:56:54;1.50;91.80
12971;DHT22;6550;48.650;8.774;2023-04-06T03:59:21;2.40;92.10
12971;DHT22;6550;48.650;8.774;2023-04-06T04:01:48;1.40;92.00
12971;DHT22;6550;48.650;8.774;2023-04-06T04:04:15;1.40;92.00
12971;DHT22;6550;48.650;8.774;2023-04-06T04:06:42;1.50;92.20
12971;DHT22;6550;48.650;8.774;2023-04-06T04:09:11;1.40;92.10
12971;DHT22;6550;48.650;8.774;2023-04-06T04:11:42;1.30;92.10
12971;DHT22;6550;48.650;8.774;2023-04-06T04:14:11;1.30;92.00
12971;DHT22;6550;48.650;8.774;2023-04-06T04:16:38;1.30;92.40
12971;DHT22;6550;48.650;8.774;2023-04-06T04:19:06;1.30;92.40
12971;DHT22;6550;48.650;8.774;2023-04-06T04:21:45;1.70;92.70
12971;DHT22;6550;48.650;8.774;2023-04-06T04:24:13;1.20;92.50
12971;DHT22;6550;48.650;8.774;2023-04-06T04:26:40;1.40;92.60
12971;DHT22;6550;48.650;8.774;2023-04-06T04:29:09;1.20;92.70
12971;DHT22;6550;48.650;8.774;2023-04-06T04:34:06;1.10;92.50
12971;DHT22;6550;48.650;8.774;2023-04-06T04:36:33;1.20;92.70
12971;DHT22;6550;48.650;8.774;2023-04-06T04:39:02;1.10;92.70
12971;DHT22;6550;48.650;8.774;2023-04-06T04:41:31;1.10;92.40
12971;DHT22;6550;48.650;8.774;2023-04-06T04:43:58;1.10;92.80
12971;DHT22;6550;48.650;8.774;2023-04-06T04:46:27;1.20;92.70
12971;DHT22;6550;48.650;8.774;2023-04-06T04:48:56;1.10;92.80
12971;DHT22;6550;48.650;8.774;2023-04-06T04:51:23;1.10;92.80
12971;DHT22;6550;48.650;8.774;2023-04-06T04:53:51;1.00;92.90
12971;DHT22;6550;48.650;8.774;2023-04-06T04:56:17;1.10;93.00
12971;DHT22;6550;48.650;8.774;2023-04-06T04:58:44;1.10;93.10
12971;DHT22;6550;48.650;8.774;2023-04-06T05:01:13;1.10;93.10
12971;DHT22;6550;48.650;8.774;2023-04-06T05:03:43;1.00;93.20
12971;DHT22;6550;48.650;8.774;2023-04-06T05:06:10;1.00;93.20
12971;DHT22;6550;48.650;8.774;2023-04-06T05:08:39;1.10;93.00
12971;DHT22;6550;48.650;8.774;2023-04-06T05:11:08;1.00;93.00
12971;DHT22;6550;48.650;8.774;2023-04-06T05:13:35;1.00;93.10
12971;DHT22;6550;48.650;8.774;2023-04-06T05:16:02;1.10;93.10
12971;DHT22;6550;48.650;8.774;2023-04-06T05:18:29;1.00;93.10
12971;DHT22;6550;48.650;8.774;2023-04-06T05:20:59;1.10;93.10
12971;DHT22;6550;48.650;8.774;2023-04-06T05:23:26;1.00;93.10
12971;DHT22;6550;48.650;8.774;2023-04-06T05:25:52;1.00;93.30
12971;DHT22;6550;48.650;8.774;2023-04-06T05:28:19;2.10;93.60
12971;DHT22;6550;48.650;8.774;2023-04-06T05:30:46;1.10;93.40
12971;DHT22;6550;48.650;8.774;2023-04-06T05:33:13;1.10;93.70
12971;DHT22;6550;48.650;8.774;2023-04-06T05:35:40;1.20;93.80
12971;DHT22;6550;48.650;8.774;2023-04-06T05:38:10;1.20;93.90
12971;DHT22;6550;48.650;8.774;2023-04-06T05:40:39;1.10;93.90
12971;DHT22;6550;48.650;8.774;2023-04-06T05:43:07;1.20;94.20
12971;DHT22;6550;48.650;8.774;2023-04-06T05:45:36;1.30;94.40
12971;DHT22;6550;48.650;8.774;2023-04-06T05:48:03;1.60;94.30
12971;DHT22;6550;48.650;8.774;2023-04-06T05:50:30;2.10;99.90
12971;DHT22;6550;48.650;8.774;2023-04-06T05:52:57;2.30;99.90
12971;DHT22;6550;48.650;8.774;2023-04-06T05:55:23;2.80;96.10
12971;DHT22;6550;48.650;8.774;2023-04-06T06:00:20;2.40;98.60
12971;DHT22;6550;48.650;8.774;2023-04-06T06:02:49;2.20;99.40
12971;DHT22;6550;48.650;8.774;2023-04-06T06:05:18;2.10;99.80
12971;DHT22;6550;48.650;8.774;2023-04-06T06:07:47;2.00;99.90
12971;DHT22;6550;48.650;8.774;2023-04-06T06:10:14;2.00;99.90
12971;DHT22;6550;48.650;8.774;2023-04-06T06:15:08;2.10;99.50
12971;DHT22;6550;48.650;8.774;2023-04-06T06:20:08;2.10;99.30
12971;DHT22;6550;48.650;8.774;2023-04-06T06:22:37;2.20;99.20
12971;DHT22;6550;48.650;8.774;2023-04-06T06:25:04;2.20;99.00
12971;DHT22;6550;48.650;8.774;2023-04-06T06:27:33;2.30;98.30
12971;DHT22;6550;48.650;8.774;2023-04-06T06:30:00;2.30;98.40
12971;DHT22;6550;48.650;8.774;2023-04-06T06:32:27;2.30;99.10
12971;DHT22;6550;48.650;8.774;2023-04-06T06:34:54;2.40;98.90
12971;DHT22;6550;48.650;8.774;2023-04-06T06:37:20;2.40;98.40
12971;DHT22;6550;48.650;8.774;2023-04-06T06:39:47;2.50;98.00
12971;DHT22;6550;48.650;8.774;2023-04-06T06:42:16;2.60;98.20
12971;DHT22;6550;48.650;8.774;2023-04-06T06:44:45;2.70;97.30
12971;DHT22;6550;48.650;8.774;2023-04-06T06:47:12;2.70;97.50
12971;DHT22;6550;48.650;8.774;2023-04-06T06:49:41;3.10;96.70
12971;DHT22;6550;48.650;8.774;2023-04-06T06:52:08;3.00;96.30
12971;DHT22;6550;48.650;8.774;2023-04-06T06:54:37;3.30;96.70
12971;DHT22;6550;48.650;8.774;2023-04-06T06:57:04;3.10;96.00
12971;DHT22;6550;48.650;8.774;2023-04-06T06:59:33;3.20;95.80
12971;DHT22;6550;48.650;8.774;2023-04-06T07:02:00;3.50;95.40
12971;DHT22;6550;48.650;8.774;2023-04-06T07:04:29;3.50;95.00
12971;DHT22;6550;48.650;8.774;2023-04-06T07:06:56;3.70;95.00
12971;DHT22;6550;48.650;8.774;2023-04-06T07:09:25;3.80;94.60
12971;DHT22;6550;48.650;8.774;2023-04-06T07:11:53;4.10;93.90
12971;DHT22;6550;48.650;8.774;2023-04-06T07:14:20;4.30;93.70
12971;DHT22;6550;48.650;8.774;2023-04-06T07:16:46;4.30;93.90
12971;DHT22;6550;48.650;8.774;2023-04-06T07:19:15;4.60;93.30
12971;DHT22;6550;48.650;8.774;2023-04-06T07:21:42;4.60;93.30
12971;DHT22;6550;48.650;8.774;2023-04-06T07:24:11;4.80;93.30
12971;DHT22;6550;48.650;8.774;2023-04-06T07:26:38;5.20;92.40
12971;DHT22;6550;48.650;8.774;2023-04-06T07:29:04;5.50;92.10
12971;DHT22;6550;48.650;8.774;2023-04-06T07:31:31;5.70;91.70
12971;DHT22;6550;48.650;8.774;2023-04-06T07:33:58;6.10;91.10
12971;DHT22;6550;48.650;8.774;2023-04-06T07:36:25;6.40;90.80
12971;DHT22;6550;48.650;8.774;2023-04-06T07:38:52;6.30;90.80
12971;DHT22;6550;48.650;8.774;2023-04-06T07:41:19;6.70;88.60
12971;DHT22;6550;48.650;8.774;2023-04-06T07:43:48;6.90;89.20
12971;DHT22;6550;48.650;8.774;2023-04-06T07:46:15;7.50;87.00
12971;DHT22;6550;48.650;8.774;2023-04-06T07:48:42;7.90;86.40
12971;DHT22;6550;48.650;8.774;2023-04-06T07:51:08;7.90;86.70
12971;DHT22;6550;48.650;8.774;2023-04-06T07:53:40;8.20;85.50
12971;DHT22;6550;48.650;8.774;2023-04-06T07:56:11;8.90;83.00
12971;DHT22;6550;48.650;8.774;2023-04-06T07:58:42;8.90;83.50
12971;DHT22;6550;48.650;8.774;2023-04-06T08:01:08;9.50;80.50
12971;DHT22;6550;48.650;8.774;2023-04-06T08:03:37;9.50;81.00
12971;DHT22;6550;48.650;8.774;2023-04-06T08:06:05;9.90;79.30
12971;DHT22;6550;48.650;8.774;2023-04-06T08:08:34;10.20;79.50
12971;DHT22;6550;48.650;8.774;2023-04-06T08:11:01;10.60;77.10
12971;DHT22;6550;48.650;8.774;2023-04-06T08:15:59;10.90;76.40
12971;DHT22;6550;48.650;8.774;2023-04-06T08:20:56;11.50;74.00
12971;DHT22;6550;48.650;8.774;2023-04-06T08:23:23;11.90;74.40
12971;DHT22;6550;48.650;8.774;2023-04-06T08:25:50;11.90;74.90
12971;DHT22;6550;48.650;8.774;2023-04-06T08:28:19;12.50;72.10
12971;DHT22;6550;48.650;8.774;2023-04-06T08:30:46;12.60;72.30
12971;DHT22;6550;48.650;8.774;2023-04-06T08:33:13;13.10;72.10
12971;DHT22;6550;48.650;8.774;2023-04-06T08:35:42;13.10;72.50
12971;DHT22;6550;48.650;8.774;2023-04-06T08:38:09;13.30;71.30
12971;DHT22;6550;48.650;8.774;2023-04-06T08:40:39;13.80;70.50
12971;DHT22;6550;48.650;8.774;2023-04-06T08:43:13;14.00;69.50
12971;DHT22;6550;48.650;8.774;2023-04-06T08:45:41;14.00;70.00
12971;DHT22;6550;48.650;8.774;2023-04-06T08:48:11;14.20;69.60
12971;DHT22;6550;48.650;8.774;2023-04-06T08:50:41;14.50;69.10
12971;DHT22;6550;48.650;8.774;2023-04-06T08:53:11;14.70;67.50
12971;DHT22;6550;48.650;8.774;2023-04-06T08:55:38;15.00;66.50
12971;DHT22;6550;48.650;8.774;2023-04-06T08:58:07;15.50;65.10
12971;DHT22;6550;48.650;8.774;2023-04-06T09:00:38;15.60;64.40
12971;DHT22;6550;48.650;8.774;2023-04-06T09:03:06;15.60;64.40
12971;DHT22;6550;48.650;8.774;2023-04-06T09:05:36;16.00;65.60
12971;DHT22;6550;48.650;8.774;2023-04-06T09:10:32;16.40;65.10
12971;DHT22;6550;48.650;8.774;2023-04-06T09:13:08;16.50;65.20
12971;DHT22;6550;48.650;8.774;2023-04-06T09:15:35;16.80;66.40
12971;DHT22;6550;48.650;8.774;2023-04-06T09:18:05;17.00;65.50
12971;DHT22;6550;48.650;8.774;2023-04-06T09:20:32;17.20;65.20
12971;DHT22;6550;48.650;8.774;2023-04-06T09:23:01;17.30;63.70
12971;DHT22;6550;48.650;8.774;2023-04-06T09:25:28;17.50;64.10
12971;DHT22;6550;48.650;8.774;2023-04-06T09:27:59;17.60;64.60
12971;DHT22;6550;48.650;8.774;2023-04-06T09:30:29;17.90;62.30
12971;DHT22;6550;48.650;8.774;2023-04-06T09:32:57;17.00;54.70
12971;DHT22;6550;48.650;8.774;2023-04-06T09:35:26;16.90;58.20
12971;DHT22;6550;48.650;8.774;2023-04-06T09:37:54;17.30;59.50
12971;DHT22;6550;48.650;8.774;2023-04-06T09:40:24;17.70;60.50
12971;DHT22;6550;48.650;8.774;2023-04-06T09:42:51;18.00;60.50
12971;DHT22;6550;48.650;8.774;2023-04-06T09:45:19;18.30;60.30
12971;DHT22;6550;48.650;8.774;2023-04-06T09:47:48;18.50;59.20
12971;DHT22;6550;48.650;8.774;2023-04-06T09:50:18;18.70;60.50
12971;DHT22;6550;48.650;8.774;2023-04-06T09:52:50;18.90;57.70
12971;DHT22;6550;48.650;8.774;2023-04-06T09:55:30;19.00;58.20
12971;DHT22;6550;48.650;8.774;2023-04-06T09:58:26;19.20;59.00
12971;DHT22;6550;48.650;8.774;2023-04-06T10:01:09;19.30;58.30
12971;DHT22;6550;48.650;8.774;2023-04-06T10:04:17;19.50;58.40
12971;DHT22;6550;48.650;8.774;2023-04-06T10:06:37;19.60;58.40
12971;DHT22;6550;48.650;8.774;2023-04-06T10:09:06;19.80;58.90
12971;DHT22;6550;48.650;8.774;2023-04-06T10:11:34;19.90;59.00
12971;DHT22;6550;48.650;8.774;2023-04-06T10:14:04;20.00;59.00
12971;DHT22;6550;48.650;8.774;2023-04-06T10:16:36;20.10;57.60
12971;DHT22;6550;48.650;8.774;2023-04-06T10:19:26;20.20;58.00
12971;DHT22;6550;48.650;8.774;2023-04-06T10:21:57;20.20;56.80
12971;DHT22;6550;48.650;8.774;2023-04-06T10:27:06;20.50;57.30
12971;DHT22;6550;48.650;8.774;2023-04-06T10:29:46;20.60;58.20
12971;DHT22;6550;48.650;8.774;2023-04-06T10:32:15;20.70;57.80
12971;DHT22;6550;48.650;8.774;2023-04-06T10:37:16;20.80;56.00
12971;DHT22;6550;48.650;8.774;2023-04-06T10:39:48;20.90;55.60
12971;DHT22;6550;48.650;8.774;2023-04-06T10:42:24;20.90;56.10
12971;DHT22;6550;48.650;8.774;2023-04-06T10:44:52;21.00;55.80
12971;DHT22;6550;48.650;8.774;2023-04-06T10:47:21;21.00;54.80
12971;DHT22;6550;48.650;8.774;2023-04-06T10:49:50;21.30;56.60
12971;DHT22;6550;48.650;8.774;2023-04-06T10:52:19;21.20;56.50
12971;DHT22;6550;48.650;8.774;2023-04-06T10:54:46;21.40;56.90
12971;DHT22;6550;48.650;8.774;2023-04-06T10:59:44;21.40;54.80
12971;DHT22;6550;48.650;8.774;2023-04-06T11:02:19;21.40;54.80
12971;DHT22;6550;48.650;8.774;2023-04-06T11:04:56;21.50;54.00
12971;DHT22;6550;48.650;8.774;2023-04-06T11:07:27;21.40;54.60
12971;DHT22;6550;48.650;8.774;2023-04-06T11:09:58;21.60;55.70
12971;DHT22;6550;48.650;8.774;2023-04-06T11:12:42;21.70;56.10
12971;DHT22;6550;48.650;8.774;2023-04-06T11:15:14;21.80;55.40
12971;DHT22;6550;48.650;8.774;2023-04-06T11:17:43;21.90;54.50
12971;DHT22;6550;48.650;8.774;2023-04-06T11:20:11;21.90;55.10
12971;DHT22;6550;48.650;8.774;2023-04-06T11:22:51;21.80;54.60
12971;DHT22;6550;48.650;8.774;2023-04-06T11:25:21;21.90;55.50
12971;DHT22;6550;48.650;8.774;2023-04-06T11:27:51;22.00;54.50
12971;DHT22;6550;48.650;8.774;2023-04-06T11:32:48;22.30;55.00
12971;DHT22;6550;48.650;8.774;2023-04-06T11:35:22;22.50;55.10
12971;DHT22;6550;48.650;8.774;2023-04-06T11:37:50;22.50;53.10
12971;DHT22;6550;48.650;8.774;2023-04-06T11:40:23;22.50;54.20
12971;DHT22;6550;48.650;8.774;2023-04-06T11:42:55;22.50;53.50
12971;DHT22;6550;48.650;8.774;2023-04-06T11:45:22;22.50;53.80
12971;DHT22;6550;48.650;8.774;2023-04-06T11:47:59;22.50;53.10
12971;DHT22;6550;48.650;8.774;2023-04-06T11:50:34;22.80;53.00
12971;DHT22;6550;48.650;8.774;2023-04-06T11:53:03;22.90;54.50
12971;DHT22;6550;48.650;8.774;2023-04-06T11:55:37;22.90;52.70
12971;DHT22;6550;48.650;8.774;2023-04-06T12:00:34;22.90;52.20
12971;DHT22;6550;48.650;8.774;2023-04-06T12:03:04;22.90;52.00
12971;DHT22;6550;48.650;8.774;2023-04-06T12:05:32;22.90;51.90
12971;DHT22;6550;48.650;8.774;2023-04-06T12:08:01;23.20;51.50
12971;DHT22;6550;48.650;8.774;2023-04-06T12:10:33;23.30;51.00
12971;DHT22;6550;48.650;8.774;2023-04-06T12:13:00;23.40;51.10
12971;DHT22;6550;48.650;8.774;2023-04-06T12:15:27;23.40;51.10
12971;DHT22;6550;48.650;8.774;2023-04-06T12:17:54;23.40;51.00
12971;DHT22;6550;48.650;8.774;2023-04-06T12:20:20;23.40;49.30
12971;DHT22;6550;48.650;8.774;2023-04-06T12:22:55;23.40;51.10
12971;DHT22;6550;48.650;8.774;2023-04-06T12:25:24;23.30;51.70
12971;DHT22;6550;48.650;8.774;2023-04-06T12:27:51;23.40;52.40
12971;DHT22;6550;48.650;8.774;2023-04-06T12:30:18;23.70;50.70
12971;DHT22;6550;48.650;8.774;2023-04-06T12:32:45;23.70;51.90
12971;DHT22;6550;48.650;8.774;2023-04-06T12:35:15;23.80;52.00
12971;DHT22;6550;48.650;8.774;2023-04-06T12:37:42;23.80;51.80
12971;DHT22;6550;48.650;8.774;2023-04-06T12:40:09;24.00;50.70
12971;DHT22;6550;48.650;8.774;2023-04-06T12:42:40;24.00;51.50
12971;DHT22;6550;48.650;8.774;2023-04-06T12:45:08;24.10;49.70
12971;DHT22;6550;48.650;8.774;2023-04-06T12:50:05;24.00;50.70
12971;DHT22;6550;48.650;8.774;2023-04-06T12:52:32;24.10;51.00
12971;DHT22;6550;48.650;8.774;2023-04-06T12:55:02;24.00;51.50
12971;DHT22;6550;48.650;8.774;2023-04-06T12:57:29;24.10;51.80
12971;DHT22;6550;48.650;8.774;2023-04-06T12:59:58;24.10;50.60
12971;DHT22;6550;48.650;8.774;2023-04-06T13:02:27;24.20;51.30
12971;DHT22;6550;48.650;8.774;2023-04-06T13:04:56;24.20;51.50
12971;DHT22;6550;48.650;8.774;2023-04-06T13:07:25;24.20;49.00
12971;DHT22;6550;48.650;8.774;2023-04-06T13:09:55;24.30;48.80
12971;DHT22;6550;48.650;8.774;2023-04-06T13:12:22;24.40;51.60
12971;DHT22;6550;48.650;8.774;2023-04-06T13:14:48;24.50;48.90
12971;DHT22;6550;48.650;8.774;2023-04-06T13:22:15;24.60;49.90
12971;DHT22;6550;48.650;8.774;2023-04-06T13:24:45;24.20;51.70
12971;DHT22;6550;48.650;8.774;2023-04-06T13:27:14;24.20;51.20
12971;DHT22;6550;48.650;8.774;2023-04-06T13:29:41;24.00;51.60
12971;DHT22;6550;48.650;8.774;2023-04-06T13:32:10;23.90;51.90
12971;DHT22;6550;48.650;8.774;2023-04-06T13:34:37;23.70;51.50
12971;DHT22;6550;48.650;8.774;2023-04-06T13:37:03;23.40;49.90
12971;DHT22;6550;48.650;8.774;2023-04-06T13:39:31;23.30;50.10
12971;DHT22;6550;48.650;8.774;2023-04-06T13:42:00;23.10;49.70
12971;DHT22;6550;48.650;8.774;2023-04-06T13:46:56;22.90;50.30
12971;DHT22;6550;48.650;8.774;2023-04-06T13:49:26;22.60;50.50
12971;DHT22;6550;48.650;8.774;2023-04-06T13:51:56;22.40;50.50
12971;DHT22;6550;48.650;8.774;2023-04-06T13:54:23;22.20;50.60
12971;DHT22;6550;48.650;8.774;2023-04-06T13:56:52;22.20;51.30
12971;DHT22;6550;48.650;8.774;2023-04-06T13:59:19;22.10;51.50
12971;DHT22;6550;48.650;8.774;2023-04-06T14:01:47;22.00;51.60
12971;DHT22;6550;48.650;8.774;2023-04-06T14:04:14;21.80;50.40
12971;DHT22;6550;48.650;8.774;2023-04-06T14:06:40;21.80;51.30
12971;DHT22;6550;48.650;8.774;2023-04-06T14:09:07;21.70;51.50
12971;DHT22;6550;48.650;8.774;2023-04-06T14:11:34;21.90;51.80
12971;DHT22;6550;48.650;8.774;2023-04-06T14:14:01;21.70;51.60
12971;DHT22;6550;48.650;8.774;2023-04-06T14:16:28;21.80;52.30
12971;DHT22;6550;48.650;8.774;2023-04-06T14:18:57;21.80;51.90
12971;DHT22;6550;48.650;8.774;2023-04-06T14:21:25;21.80;51.60
12971;DHT22;6550;48.650;8.774;2023-04-06T14:23:53;21.70;51.40
12971;DHT22;6550;48.650;8.774;2023-04-06T14:26:21;21.70;51.20
12971;DHT22;6550;48.650;8.774;2023-04-06T14:28:48;21.50;51.30
12971;DHT22;6550;48.650;8.774;2023-04-06T14:31:15;21.50;51.50
12971;DHT22;6550;48.650;8.774;2023-04-06T14:33:42;21.30;51.90
12971;DHT22;6550;48.650;8.774;2023-04-06T14:36:10;21.20;51.80
12971;DHT22;6550;48.650;8.774;2023-04-06T14:41:08;20.90;51.10
12971;DHT22;6550;48.650;8.774;2023-04-06T14:43:36;20.60;50.80
12971;DHT22;6550;48.650;8.774;2023-04-06T14:48:29;20.50;51.40
12971;DHT22;6550;48.650;8.774;2023-04-06T14:50:58;20.50;52.70
12971;DHT22;6550;48.650;8.774;2023-04-06T14:53:27;20.50;52.30
12971;DHT22;6550;48.650;8.774;2023-04-06T14:55:58;20.40;52.50
12971;DHT22;6550;48.650;8.774;2023-04-06T14:58:30;20.40;53.00
12971;DHT22;6550;48.650;8.774;2023-04-06T15:00:58;20.40;52.70
12971;DHT22;6550;48.650;8.774;2023-04-06T15:03:31;20.40;52.80
12971;DHT22;6550;48.650;8.774;2023-04-06T15:05:58;20.40;53.00
12971;DHT22;6550;48.650;8.774;2023-04-06T15:08:27;20.40;53.40
12971;DHT22;6550;48.650;8.774;2023-04-06T15:10:58;20.40;53.50
12971;DHT22;6550;48.650;8.774;2023-04-06T15:13:25;20.50;52.90
12971;DHT22;6550;48.650;8.774;2023-04-06T15:15:51;20.50;53.70
12971;DHT22;6550;48.650;8.774;2023-04-06T15:18:18;20.50;53.00
12971;DHT22;6550;48.650;8.774;2023-04-06T15:20:45;20.40;52.80
12971;DHT22;6550;48.650;8.774;2023-04-06T15:23:12;20.40;53.50
12971;DHT22;6550;48.650;8.774;2023-04-06T15:25:39;20.40;53.40
12971;DHT22;6550;48.650;8.774;2023-04-06T15:28:12;20.30;53.70
12971;DHT22;6550;48.650;8.774;2023-04-06T15:30:39;20.20;53.60
12971;DHT22;6550;48.650;8.774;2023-04-06T15:33:10;20.00;53.70
12971;DHT22;6550;48.650;8.774;2023-04-06T15:35:39;19.80;53.30
12971;DHT22;6550;48.650;8.774;2023-04-06T15:40:48;19.70;53.30
12971;DHT22;6550;48.650;8.774;2023-04-06T15:43:15;19.50;54.10
12971;DHT22;6550;48.650;8.774;2023-04-06T15:45:41;19.40;54.10
12971;DHT22;6550;48.650;8.774;2023-04-06T15:48:13;19.40;54.40
12971;DHT22;6550;48.650;8.774;2023-04-06T15:50:40;19.20;54.50
12971;DHT22;6550;48.650;8.774;2023-04-06T15:53:06;19.10;54.70
12971;DHT22;6550;48.650;8.774;2023-04-06T15:55:33;19.00;55.20
12971;DHT22;6550;48.650;8.774;2023-04-06T15:58:02;18.80;54.80
12971;DHT22;6550;48.650;8.774;2023-04-06T16:00:29;18.70;55.40
12971;DHT22;6550;48.650;8.774;2023-04-06T16:02:56;18.50;56.10
12971;DHT22;6550;48.650;8.774;2023-04-06T16:05:23;18.40;56.30
12971;DHT22;6550;48.650;8.774;2023-04-06T16:07:53;18.30;55.80
12971;DHT22;6550;48.650;8.774;2023-04-06T16:10:22;18.10;55.90
12971;DHT22;6550;48.650;8.774;2023-04-06T16:12:51;17.90;56.10
12971;DHT22;6550;48.650;8.774;2023-04-06T16:15:18;17.80;55.90
12971;DHT22;6550;48.650;8.774;2023-04-06T16:17:45;17.80;56.20
12971;DHT22;6550;48.650;8.774;2023-04-06T16:20:11;17.80;55.90
12971;DHT22;6550;48.650;8.774;2023-04-06T16:22:43;17.60;55.70
12971;DHT22;6550;48.650;8.774;2023-04-06T16:25:10;17.50;55.90
12971;DHT22;6550;48.650;8.774;2023-04-06T16:27:40;17.50;55.20
12971;DHT22;6550;48.650;8.774;2023-04-06T16:30:12;17.40;55.30
12971;DHT22;6550;48.650;8.774;2023-04-06T16:32:41;17.30;55.30
12971;DHT22;6550;48.650;8.774;2023-04-06T16:35:14;17.20;55.90
12971;DHT22;6550;48.650;8.774;2023-04-06T16:37:43;17.10;56.00
12971;DHT22;6550;48.650;8.774;2023-04-06T16:40:11;17.10;55.90
12971;DHT22;6550;48.650;8.774;2023-04-06T16:42:38;17.00;56.50
12971;DHT22;6550;48.650;8.774;2023-04-06T16:45:08;17.00;56.80
12971;DHT22;6550;48.650;8.774;2023-04-06T16:47:35;16.90;57.00
12971;DHT22;6550;48.650;8.774;2023-04-06T16:50:03;16.80;57.10
12971;DHT22;6550;48.650;8.774;2023-04-06T16:52:32;16.70;58.30
12971;DHT22;6550;48.650;8.774;2023-04-06T16:55:00;16.60;58.30
12971;DHT22;6550;48.650;8.774;2023-04-06T16:57:27;16.60;58.80
12971;DHT22;6550;48.650;8.774;2023-04-06T17:00:01;16.40;58.70